createdAt,value
2023-04-26T00:01:06.499Z,2.75
2023-04-26T00:03:36.927Z,3.67
2023-04-26T00:06:06.750Z,19.05
2023-04-26T00:08:33.260Z,6.78
2023-04-26T00:10:59.832Z,22.95
2023-04-26T00:13:28.540Z,79.40
2023-04-26T00:15:55.459Z,95.68
2023-04-26T00:18:22.023Z,161.98
2023-04-26T00:20:48.864Z,84.32
2023-04-26T00:23:15.789Z,46.90
2023-04-26T00:25:42.653Z,14.88
2023-04-26T00:28:11.264Z,130.57
2023-04-26T00:30:41.231Z,74.72
2023-04-26T00:33:09.940Z,10.73
2023-04-26T00:35:40.120Z,7.57
2023-04-26T00:38:06.645Z,6.22
2023-04-26T00:40:35.489Z,35.10
2023-04-26T00:43:05.310Z,54.30
2023-04-26T00:45:37.964Z,11.07
2023-04-26T00:48:05.413Z,71.28
2023-04-26T00:50:33.090Z,59.55
2023-04-26T00:53:00.848Z,101.25
2023-04-26T00:55:27.614Z,47.38
2023-04-26T00:58:03.380Z,70.70
2023-04-26T01:00:32.204Z,31.42
2023-04-26T01:02:59.594Z,47.05
2023-04-26T01:05:26.529Z,28.92
2023-04-26T01:07:53.360Z,7.70
2023-04-26T01:10:20.061Z,6.47
2023-04-26T01:12:48.176Z,4.18
2023-04-26T01:15:14.777Z,3.67
2023-04-26T01:17:41.386Z,4.28
2023-04-26T01:20:12.175Z,4.68
2023-04-26T01:22:38.633Z,4.75
2023-04-26T01:25:09.251Z,2.92
2023-04-26T01:27:36.482Z,2.63
2023-04-26T01:30:03.502Z,3.03
2023-04-26T01:32:31.875Z,12.35
2023-04-26T01:35:02.393Z,101.60
2023-04-26T01:37:28.921Z,31.27
2023-04-26T01:39:55.809Z,51.65
2023-04-26T01:42:30.952Z,34.58
2023-04-26T01:44:58.790Z,50.25
2023-04-26T01:47:26.584Z,122.00
2023-04-26T01:49:53.425Z,50.40
2023-04-26T01:52:20.029Z,148.27
2023-04-26T01:54:46.805Z,183.98
2023-04-26T01:57:13.388Z,13.43
2023-04-26T01:59:39.920Z,22.55
2023-04-26T02:02:07.050Z,134.55
2023-04-26T02:04:33.947Z,38.35
2023-04-26T02:07:00.696Z,22.75
2023-04-26T02:09:27.278Z,82.82
2023-04-26T02:11:55.966Z,91.82
2023-04-26T02:14:22.537Z,46.72
2023-04-26T02:16:49.271Z,59.25
2023-04-26T02:19:24.242Z,167.52
2023-04-26T02:21:55.828Z,40.38
2023-04-26T02:24:23.192Z,13.38
2023-04-26T02:26:51.984Z,24.33
2023-04-26T02:29:22.656Z,52.42
2023-04-26T02:31:53.605Z,59.03
2023-04-26T02:34:20.509Z,58.60
2023-04-26T02:36:46.957Z,25.50
2023-04-26T02:39:20.073Z,52.10
2023-04-26T02:41:46.833Z,27.30
2023-04-26T02:44:13.366Z,25.40
2023-04-26T02:46:41.870Z,22.60
2023-04-26T02:49:08.467Z,26.40
2023-04-26T02:51:35.440Z,45.22
2023-04-26T02:54:04.565Z,21.58
2023-04-26T02:56:32.286Z,16.98
2023-04-26T02:58:58.829Z,34.67
2023-04-26T03:01:25.726Z,36.95
2023-04-26T03:03:52.479Z,58.83
2023-04-26T03:06:19.046Z,55.50
2023-04-26T03:08:45.893Z,14.70
2023-04-26T03:11:12.474Z,55.35
2023-04-26T03:13:39.008Z,97.25
2023-04-26T03:16:08.398Z,126.63
2023-04-26T03:18:34.953Z,80.90
2023-04-26T03:21:01.595Z,87.13
2023-04-26T03:23:31.110Z,96.85
2023-04-26T03:25:57.597Z,101.97
2023-04-26T03:28:24.280Z,69.53
2023-04-26T03:30:51.208Z,79.28
2023-04-26T03:33:19.980Z,55.67
2023-04-26T03:35:46.678Z,24.38
2023-04-26T03:38:13.467Z,74.68
2023-04-26T03:40:40.111Z,23.20
2023-04-26T03:43:06.919Z,29.40
2023-04-26T03:45:35.379Z,18.52
2023-04-26T03:48:01.947Z,8.88
2023-04-26T03:50:28.490Z,7.18
2023-04-26T03:53:01.249Z,20.13
2023-04-26T03:55:36.372Z,10.80
2023-04-26T03:58:04.650Z,29.63
2023-04-26T04:00:33.064Z,25.42
2023-04-26T04:03:01.402Z,8.00
2023-04-26T04:05:28.132Z,7.15
2023-04-26T04:07:54.777Z,7.03
2023-04-26T04:10:27.910Z,21.45
2023-04-26T04:12:56.439Z,74.82
2023-04-26T04:15:23.477Z,22.27
2023-04-26T04:17:50.337Z,39.10
2023-04-26T04:20:17.034Z,9.77
2023-04-26T04:22:43.625Z,18.08
2023-04-26T04:25:16.922Z,15.00
2023-04-26T04:27:43.585Z,10.25
2023-04-26T04:30:10.642Z,9.43
2023-04-26T04:32:40.465Z,16.13
2023-04-26T04:35:07.692Z,15.40
2023-04-26T04:37:35.241Z,22.60
2023-04-26T04:40:01.969Z,6.70
2023-04-26T04:42:28.490Z,6.57
2023-04-26T04:44:57.621Z,6.30
2023-04-26T04:47:24.610Z,6.22
2023-04-26T04:49:54.191Z,5.50
2023-04-26T04:52:23.321Z,7.57
2023-04-26T04:54:51.584Z,6.03
2023-04-26T04:57:18.929Z,6.32
2023-04-26T04:59:45.431Z,6.20
2023-04-26T05:02:13.837Z,9.32
2023-04-26T05:04:40.573Z,7.97
2023-04-26T05:07:07.875Z,8.27
2023-04-26T05:09:36.351Z,7.20
2023-04-26T05:12:03.213Z,6.50
2023-04-26T05:14:30.586Z,6.53
2023-04-26T05:16:59.399Z,7.15
2023-04-26T05:19:26.068Z,7.53
2023-04-26T05:21:53.218Z,4.93
2023-04-26T05:24:20.155Z,5.13
2023-04-26T05:26:47.547Z,5.68
2023-04-26T05:29:14.147Z,5.40
2023-04-26T05:31:45.658Z,6.53
2023-04-26T05:34:12.158Z,5.05
2023-04-26T05:36:38.661Z,5.28
2023-04-26T05:39:10.317Z,5.20
2023-04-26T05:41:36.834Z,6.60
2023-04-26T05:44:06.707Z,4.07
2023-04-26T05:46:41.411Z,4.53
2023-04-26T05:49:07.992Z,4.22
2023-04-26T05:51:34.554Z,5.55
2023-04-26T05:54:01.366Z,4.18
2023-04-26T05:56:27.860Z,5.75
2023-04-26T05:58:54.363Z,4.60
2023-04-26T06:01:21.385Z,5.63
2023-04-26T06:03:48.276Z,5.97
2023-04-26T06:06:15.931Z,6.43
2023-04-26T06:08:43.286Z,8.15
2023-04-26T06:11:09.845Z,4.70
2023-04-26T06:13:39.696Z,11.10
2023-04-26T06:16:08.197Z,6.03
2023-04-26T06:18:34.678Z,5.07
2023-04-26T06:21:01.166Z,4.50
2023-04-26T06:23:29.598Z,5.75
2023-04-26T06:25:56.067Z,10.30
2023-04-26T06:28:22.640Z,6.28
2023-04-26T06:30:49.473Z,4.95
2023-04-26T06:33:17.788Z,4.90
2023-04-26T06:35:44.337Z,4.70
2023-04-26T06:38:19.123Z,3.88
2023-04-26T06:40:45.782Z,5.67
2023-04-26T06:43:12.286Z,5.07
2023-04-26T06:45:45.424Z,5.10
2023-04-26T06:48:12.194Z,5.03
2023-04-26T06:50:41.785Z,3.53
2023-04-26T06:53:08.534Z,4.82
2023-04-26T06:55:37.232Z,4.53
2023-04-26T06:58:03.797Z,4.18
2023-04-26T07:00:32.524Z,7.25
2023-04-26T07:02:59.254Z,8.25
2023-04-26T07:05:26.085Z,7.13
2023-04-26T07:08:01.331Z,4.88
2023-04-26T07:10:27.967Z,6.40
2023-04-26T07:12:54.459Z,5.13
2023-04-26T07:15:26.033Z,5.53
2023-04-26T07:17:52.527Z,5.32
2023-04-26T07:20:22.978Z,5.75
2023-04-26T07:22:50.147Z,4.05
2023-04-26T07:25:17.403Z,4.13
2023-04-26T07:27:43.959Z,4.13
2023-04-26T07:30:12.716Z,4.40
2023-04-26T07:32:41.783Z,3.92
2023-04-26T07:35:10.548Z,4.57
2023-04-26T07:37:37.705Z,5.20
2023-04-26T07:40:05.119Z,3.90
2023-04-26T07:42:31.947Z,4.57
2023-04-26T07:44:58.530Z,4.40
2023-04-26T07:47:25.068Z,5.72
2023-04-26T07:49:54.750Z,3.88
2023-04-26T07:52:25.698Z,4.25
2023-04-26T07:54:52.227Z,4.35
2023-04-26T07:57:18.747Z,3.47
2023-04-26T07:59:50.533Z,3.70
2023-04-26T08:02:17.190Z,3.60
2023-04-26T08:04:50.125Z,4.70
2023-04-26T08:07:17.233Z,4.68
2023-04-26T08:09:43.854Z,3.03
2023-04-26T08:12:12.536Z,2.88
2023-04-26T08:14:39.416Z,6.43
2023-04-26T08:17:07.129Z,2.63
2023-04-26T08:19:34.301Z,3.30
2023-04-26T08:22:01.230Z,3.63
2023-04-26T08:24:27.777Z,4.25
2023-04-26T08:26:55.425Z,2.97
2023-04-26T08:29:26.457Z,3.30
2023-04-26T08:31:53.076Z,3.05
2023-04-26T08:34:19.562Z,3.10
2023-04-26T08:36:47.908Z,3.28
2023-04-26T08:39:18.212Z,3.33
2023-04-26T08:41:50.378Z,3.63
2023-04-26T08:44:23.328Z,4.30
2023-04-26T08:47:16.912Z,3.22
2023-04-26T08:49:48.781Z,3.45
2023-04-26T08:52:17.288Z,3.40
2023-04-26T08:54:48.851Z,3.92
2023-04-26T08:57:15.932Z,4.28
2023-04-26T08:59:44.293Z,3.10
2023-04-26T09:02:17.507Z,4.00
2023-04-26T09:07:44.219Z,3.45
2023-04-26T09:10:13.552Z,4.03
2023-04-26T09:12:40.921Z,5.93
2023-04-26T09:15:08.702Z,5.25
2023-04-26T09:17:41.394Z,4.88
2023-04-26T09:20:30.694Z,6.55
2023-04-26T09:23:03.633Z,5.97
2023-04-26T09:25:37.140Z,6.72
2023-04-26T09:28:18.641Z,5.72
2023-04-26T09:30:51.872Z,10.85
2023-04-26T09:33:19.615Z,6.07
2023-04-26T09:35:49.639Z,7.82
2023-04-26T09:38:17.801Z,6.97
2023-04-26T09:40:49.559Z,8.75
2023-04-26T09:43:20.911Z,7.22
2023-04-26T09:45:56.568Z,7.72
2023-04-26T09:48:30.471Z,8.98
2023-04-26T09:50:59.557Z,6.30
2023-04-26T09:53:45.733Z,9.70
2023-04-26T09:56:21.952Z,7.18
2023-04-26T09:58:52.492Z,7.35
2023-04-26T10:01:21.533Z,10.50
2023-04-26T10:03:48.445Z,7.85
2023-04-26T10:06:16.250Z,6.20
2023-04-26T10:08:43.442Z,6.38
2023-04-26T10:11:12.901Z,8.32
2023-04-26T10:13:47.531Z,5.18
2023-04-26T10:16:14.266Z,7.40
2023-04-26T10:18:41.066Z,5.47
2023-04-26T10:21:13.139Z,5.80
2023-04-26T10:23:40.994Z,6.57
2023-04-26T10:26:07.668Z,5.38
2023-04-26T10:28:41.911Z,6.47
2023-04-26T10:31:08.421Z,5.32
2023-04-26T10:33:35.147Z,3.67
2023-04-26T10:36:08.144Z,2.95
2023-04-26T10:38:37.324Z,5.72
2023-04-26T10:41:35.404Z,4.90
2023-04-26T10:44:41.268Z,3.40
2023-04-26T10:47:20.787Z,4.68
2023-04-26T10:49:48.305Z,3.67
2023-04-26T10:52:20.260Z,3.38
2023-04-26T10:55:00.305Z,3.08
2023-04-26T10:57:48.938Z,1.98
2023-04-26T11:00:23.520Z,4.60
2023-04-26T11:02:51.891Z,3.15
2023-04-26T11:05:49.344Z,3.35
2023-04-26T11:11:10.986Z,3.60
2023-04-26T11:13:42.606Z,3.15
2023-04-26T11:16:11.233Z,3.78
2023-04-26T11:18:42.466Z,4.22
2023-04-26T11:21:10.508Z,2.33
2023-04-26T11:23:37.551Z,5.90
2023-04-26T11:26:10.299Z,3.53
2023-04-26T11:28:38.363Z,3.97
2023-04-26T11:31:07.276Z,3.88
2023-04-26T11:33:38.951Z,5.32
2023-04-26T11:36:05.925Z,3.05
2023-04-26T11:38:32.462Z,3.85
2023-04-26T11:41:03.777Z,4.10
2023-04-26T11:43:35.611Z,3.75
2023-04-26T11:46:03.283Z,4.50
2023-04-26T11:48:37.409Z,2.00
2023-04-26T11:51:05.277Z,2.25
2023-04-26T11:53:37.810Z,3.90
2023-04-26T11:56:25.401Z,3.63
2023-04-26T11:58:53.107Z,1.98
2023-04-26T12:01:24.564Z,2.83
2023-04-26T12:03:59.361Z,4.72
2023-04-26T12:06:31.029Z,5.40
2023-04-26T12:08:57.487Z,5.47
2023-04-26T12:11:26.535Z,3.28
2023-04-26T12:13:53.051Z,3.35
2023-04-26T12:16:26.071Z,2.30
2023-04-26T12:18:57.010Z,3.38
2023-04-26T12:21:30.856Z,1.85
2023-04-26T12:23:57.839Z,1.58
2023-04-26T12:26:48.949Z,1.70
2023-04-26T12:29:15.770Z,2.35
2023-04-26T12:31:43.058Z,1.40
2023-04-26T12:34:09.747Z,3.67
2023-04-26T12:36:38.189Z,1.58
2023-04-26T12:39:05.475Z,3.20
2023-04-26T12:41:32.080Z,1.13
2023-04-26T12:43:58.714Z,3.10
2023-04-26T12:46:26.207Z,2.35
2023-04-26T12:48:53.495Z,1.73
2023-04-26T12:51:25.633Z,1.27
2023-04-26T12:53:52.108Z,2.25
2023-04-26T12:56:18.955Z,3.67
2023-04-26T12:58:51.574Z,4.32
2023-04-26T13:01:20.522Z,1.92
2023-04-26T13:03:55.612Z,2.47
2023-04-26T13:06:28.829Z,2.65
2023-04-26T13:08:58.838Z,6.40
2023-04-26T13:11:25.482Z,6.28
2023-04-26T13:13:54.346Z,1.40
2023-04-26T13:16:22.790Z,2.33
2023-04-26T13:18:49.343Z,1.70
2023-04-26T13:21:17.680Z,3.92
2023-04-26T13:23:44.194Z,2.20
2023-04-26T13:26:10.840Z,4.43
2023-04-26T13:28:43.845Z,2.75
2023-04-26T13:31:10.489Z,1.42
2023-04-26T13:33:37.043Z,1.50
2023-04-26T13:36:04.041Z,5.13
2023-04-26T13:38:32.353Z,1.35
2023-04-26T13:40:59.438Z,1.00
2023-04-26T13:43:26.255Z,1.60
2023-04-26T13:45:52.853Z,2.53
2023-04-26T13:48:24.814Z,2.40
2023-04-26T13:50:53.086Z,3.90
2023-04-26T13:53:19.963Z,1.40
2023-04-26T13:55:46.528Z,1.65
2023-04-26T13:58:14.963Z,3.20
2023-04-26T14:00:42.065Z,1.95
2023-04-26T14:03:08.859Z,3.22
2023-04-26T14:05:37.393Z,2.72
2023-04-26T14:08:03.998Z,1.88
2023-04-26T14:10:30.915Z,2.10
2023-04-26T14:13:03.901Z,4.53
2023-04-26T14:15:30.385Z,1.58
2023-04-26T14:17:57.012Z,3.15
2023-04-26T14:20:25.267Z,2.08
2023-04-26T14:22:51.855Z,2.33
2023-04-26T14:25:18.977Z,1.52
2023-04-26T14:27:47.238Z,2.47
2023-04-26T14:30:14.438Z,1.20
2023-04-26T14:32:41.526Z,2.17
2023-04-26T14:35:14.317Z,1.85
2023-04-26T14:37:40.814Z,2.22
2023-04-26T14:40:08.099Z,1.67
2023-04-26T14:42:34.853Z,1.60
2023-04-26T14:45:01.525Z,2.08
2023-04-26T14:47:29.323Z,2.20
2023-04-26T14:49:59.352Z,3.25
2023-04-26T14:52:28.010Z,2.17
2023-04-26T14:54:54.713Z,3.78
2023-04-26T14:57:34.081Z,2.15
2023-04-26T15:00:06.849Z,3.13
2023-04-26T15:02:35.910Z,3.00
2023-04-26T15:05:05.885Z,3.92
2023-04-26T15:07:33.166Z,2.85
2023-04-26T15:10:00.612Z,3.63
2023-04-26T15:12:28.130Z,2.22
2023-04-26T15:14:58.410Z,2.20
2023-04-26T15:17:24.942Z,2.13
2023-04-26T15:19:57.579Z,3.15
2023-04-26T15:22:24.191Z,2.85
2023-04-26T15:24:51.188Z,2.00
2023-04-26T15:27:19.696Z,2.20
2023-04-26T15:29:49.718Z,2.05
2023-04-26T15:32:16.346Z,2.70
2023-04-26T15:34:43.924Z,2.67
2023-04-26T15:37:10.730Z,4.55
2023-04-26T15:39:37.610Z,2.35
2023-04-26T15:42:07.461Z,2.15
2023-04-26T15:44:34.012Z,2.20
2023-04-26T15:47:03.876Z,2.58
2023-04-26T15:49:32.679Z,1.95
2023-04-26T15:52:01.274Z,3.05
2023-04-26T15:54:27.977Z,2.35
2023-04-26T15:56:55.417Z,2.40
2023-04-26T15:59:21.927Z,3.75
2023-04-26T16:01:51.746Z,2.28
2023-04-26T16:04:18.627Z,2.10
2023-04-26T16:06:45.445Z,3.95
2023-04-26T16:09:24.650Z,2.38
2023-04-26T16:11:58.904Z,3.05
2023-04-26T16:14:25.392Z,3.65
2023-04-26T16:16:51.877Z,2.58
2023-04-26T16:19:18.534Z,2.35
2023-04-26T16:21:45.082Z,4.93
2023-04-26T16:24:13.970Z,4.13
2023-04-26T16:26:42.839Z,3.15
2023-04-26T16:29:09.395Z,2.63
2023-04-26T16:31:35.967Z,3.80
2023-04-26T16:34:11.247Z,3.30
2023-04-26T16:36:40.307Z,4.85
2023-04-26T16:39:07.686Z,4.93
2023-04-26T16:41:34.628Z,4.55
2023-04-26T16:44:01.160Z,3.65
2023-04-26T16:46:28.077Z,3.55
2023-04-26T16:48:56.398Z,5.22
2023-04-26T16:51:23.356Z,6.78
2023-04-26T16:53:50.055Z,6.68
2023-04-26T16:56:16.926Z,3.50
2023-04-26T16:58:47.076Z,4.75
2023-04-26T17:01:13.658Z,3.30
2023-04-26T17:03:42.141Z,2.67
2023-04-26T17:06:10.335Z,6.03
2023-04-26T17:08:36.973Z,2.20
2023-04-26T17:11:09.623Z,5.30
2023-04-26T17:13:36.155Z,2.63
2023-04-26T17:16:02.726Z,1.83
2023-04-26T17:18:29.386Z,2.92
2023-04-26T17:20:56.435Z,2.20
2023-04-26T17:23:23.070Z,2.05
2023-04-26T17:25:53.276Z,2.13
2023-04-26T17:28:21.232Z,3.38
2023-04-26T17:30:47.811Z,1.48
2023-04-26T17:33:23.373Z,1.73
2023-04-26T17:35:51.901Z,1.67
2023-04-26T17:38:18.390Z,3.67
2023-04-26T17:40:49.490Z,2.42
2023-04-26T17:43:16.190Z,3.88
2023-04-26T17:45:42.716Z,3.80
2023-04-26T17:48:14.684Z,2.70
2023-04-26T17:50:41.372Z,7.40
2023-04-26T17:53:08.684Z,1.65
2023-04-26T17:55:37.133Z,1.95
2023-04-26T17:58:03.673Z,3.60
2023-04-26T18:00:36.248Z,4.07
2023-04-26T18:03:05.176Z,1.60
2023-04-26T18:05:32.269Z,2.45
2023-04-26T18:07:59.188Z,1.30
2023-04-26T18:10:27.714Z,2.15
2023-04-26T18:12:54.230Z,3.50
2023-04-26T18:15:20.951Z,3.85
2023-04-26T18:17:56.111Z,2.30
2023-04-26T18:20:22.831Z,3.58
2023-04-26T18:22:49.463Z,1.33
2023-04-26T18:25:17.748Z,1.50
2023-04-26T18:27:44.345Z,2.45
2023-04-26T18:30:12.800Z,1.95
2023-04-26T18:32:39.487Z,2.58
2023-04-26T18:35:06.590Z,3.03
2023-04-26T18:37:33.219Z,2.63
2023-04-26T18:39:59.916Z,2.05
2023-04-26T18:42:26.767Z,2.85
2023-04-26T18:44:53.552Z,2.65
2023-04-26T18:47:20.080Z,2.60
2023-04-26T18:49:46.935Z,2.83
2023-04-26T18:52:13.835Z,2.40
2023-04-26T18:54:48.673Z,2.95
2023-04-26T18:57:15.687Z,2.15
2023-04-26T18:59:42.185Z,2.80
2023-04-26T19:02:08.817Z,3.05
2023-04-26T19:04:35.624Z,3.58
2023-04-26T19:07:07.950Z,2.88
2023-04-26T19:09:46.531Z,3.97
2023-04-26T19:12:13.810Z,4.75
2023-04-26T19:14:42.191Z,2.63
2023-04-26T19:17:08.686Z,2.63
2023-04-26T19:19:35.164Z,2.20
2023-04-26T19:22:05.204Z,2.53
2023-04-26T19:24:34.213Z,3.85
2023-04-26T19:27:00.888Z,6.38
2023-04-26T19:29:27.592Z,3.25
2023-04-26T19:31:54.187Z,2.22
2023-04-26T19:34:21.620Z,3.22
2023-04-26T19:36:54.847Z,2.30
2023-04-26T19:39:23.583Z,2.30
2023-04-26T19:41:54.137Z,2.50
2023-04-26T19:44:20.728Z,4.88
2023-04-26T19:46:47.276Z,6.13
2023-04-26T19:49:13.796Z,3.80
2023-04-26T19:51:40.421Z,2.15
2023-04-26T19:54:07.460Z,3.22
2023-04-26T19:56:33.983Z,2.00
2023-04-26T19:59:02.447Z,6.10
2023-04-26T20:01:30.953Z,3.50
2023-04-26T20:03:57.878Z,2.72
2023-04-26T20:06:26.304Z,4.50
2023-04-26T20:08:52.937Z,2.75
2023-04-26T20:11:19.795Z,2.10
2023-04-26T20:13:52.904Z,4.32
2023-04-26T20:16:20.034Z,4.72
2023-04-26T20:18:46.539Z,3.13
2023-04-26T20:21:19.291Z,4.55
2023-04-26T20:23:47.761Z,3.72
2023-04-26T20:26:14.280Z,3.10
2023-04-26T20:28:42.549Z,2.92
2023-04-26T20:31:09.480Z,8.52
2023-04-26T20:33:36.166Z,4.25
2023-04-26T20:36:04.499Z,3.63
2023-04-26T20:38:31.003Z,3.63
2023-04-26T20:40:57.537Z,4.07
2023-04-26T20:43:26.393Z,1.90
2023-04-26T20:45:55.000Z,3.50
2023-04-26T20:48:22.193Z,4.85
2023-04-26T20:50:50.456Z,4.47
2023-04-26T20:53:17.129Z,2.85
2023-04-26T20:55:43.927Z,4.63
2023-04-26T20:58:10.662Z,2.92
2023-04-26T21:00:37.311Z,4.53
2023-04-26T21:03:04.204Z,3.88
2023-04-26T21:05:32.728Z,3.05
2023-04-26T21:07:59.273Z,3.13
2023-04-26T21:10:25.913Z,3.63
2023-04-26T21:13:01.118Z,4.47
2023-04-26T21:15:27.695Z,4.50
2023-04-26T21:17:54.436Z,3.72
2023-04-26T21:20:21.214Z,5.55
2023-04-26T21:22:48.024Z,5.60
2023-04-26T21:27:42.578Z,4.35
2023-04-26T21:30:09.638Z,3.72
2023-04-26T21:32:37.706Z,5.53
2023-04-26T21:35:13.303Z,4.55
2023-04-26T21:37:39.808Z,3.25
2023-04-26T21:40:08.067Z,5.18
2023-04-26T21:42:34.762Z,7.43
2023-04-26T21:45:05.654Z,3.67
2023-04-26T21:47:32.448Z,5.78
2023-04-26T21:50:00.722Z,8.05
2023-04-26T21:52:27.253Z,4.93
2023-04-26T21:54:54.037Z,7.13
2023-04-26T21:57:25.784Z,6.15
2023-04-26T21:59:52.272Z,4.43
2023-04-26T22:02:19.148Z,4.07
2023-04-26T22:04:45.895Z,12.88
2023-04-26T22:07:14.767Z,4.90
2023-04-26T22:09:41.301Z,3.85
2023-04-26T22:12:07.996Z,4.45
2023-04-26T22:14:34.474Z,4.35
2023-04-26T22:17:03.053Z,3.63
2023-04-26T22:19:31.727Z,6.00
2023-04-26T22:21:58.361Z,5.38
2023-04-26T22:24:24.943Z,7.00
2023-04-26T22:26:53.202Z,5.82
2023-04-26T22:29:20.039Z,4.22
2023-04-26T22:31:46.567Z,4.45
2023-04-26T22:34:13.164Z,6.00
2023-04-26T22:36:39.754Z,3.30
2023-04-26T22:39:06.527Z,3.67
2023-04-26T22:41:39.663Z,5.10
2023-04-26T22:44:06.146Z,6.25
2023-04-26T22:46:32.641Z,3.05
2023-04-26T22:49:07.821Z,3.00
2023-04-26T22:51:34.311Z,3.85
2023-04-26T22:54:01.313Z,3.55
2023-04-26T22:56:27.925Z,3.35
2023-04-26T22:58:54.630Z,3.70
2023-04-26T23:01:21.271Z,4.60
2023-04-26T23:03:49.558Z,6.63
2023-04-26T23:06:16.178Z,3.20
2023-04-26T23:08:42.635Z,4.07
2023-04-26T23:11:14.619Z,5.93
2023-04-26T23:13:41.346Z,3.63
2023-04-26T23:16:07.962Z,3.13
2023-04-26T23:18:35.426Z,5.95
2023-04-26T23:21:03.971Z,5.43
2023-04-26T23:23:30.660Z,4.45
2023-04-26T23:25:57.297Z,2.95
2023-04-26T23:28:23.831Z,3.70
2023-04-26T23:30:52.244Z,4.72
2023-04-26T23:33:18.873Z,3.97
2023-04-26T23:35:45.566Z,3.00
2023-04-26T23:38:12.005Z,3.72
2023-04-26T23:40:38.724Z,5.07
2023-04-26T23:43:06.273Z,3.63
2023-04-26T23:45:33.078Z,2.65
2023-04-26T23:48:01.439Z,4.28
2023-04-26T23:50:28.009Z,4.53
2023-04-26T23:52:54.697Z,2.45
2023-04-26T23:55:23.367Z,3.90
2023-04-26T23:57:49.873Z,2.72
